Mayo Airport
CYMA : now visible

Airfield :











YOU CAN JOIN US ON...

 
LOGIN :

Register | Disclaimer

   EN    FR    IT 

 









Legend :    VFR   Marginal VFR   IFR   Intensive IFR   Very Intensive IFR
Visi :
Ceiling :
>= 8 km
>= 3000ft
5 to 8 km
1000 to 3000 ft
1500m to 5 km
500 to 1000 ft
800 to 1500m
200 to 500 ft
< 800m
< 200 ft
Symbols :   Thunderstorms  Fog  Heavy snow  Heavy precipitations  Wind > 20 kt







- Airport Elevation : 1653 ft
- IATA code : YMA


CYMA - Mayo

CURRENT METAR :
  • 161400Z 07004KT 360V110 10SM SCT055 SCT090 10/05 A2944 RMK SC3AC1 FU SLP984 DENSITY ALT 2000FT

EXPIRED METARs :
  • 161300Z 02010KT 15SM BKN055 BKN090 10/07 A2945 RMK SC6AC1 FU SLP985 DENSITY ALT 2000FT
  • 161244Z 36006KT 15SM SCT055 BKN090 10/07 A2945 RMK SC3AC2 FU SLP986 DENSITY ALT 2000FT
  • 161200Z 08009KT 15SM -RA BKN060 11/06 A2945 RMK SC7 13.0/10.5/0.4MM FU SLP986 DENSITY ALT 2200FT

TAF TAF CYMA
Valid from the 16 at 12:00 until the 17 at 00:00 UTC


161138Z 1612/1624 03007KT P6SM SCT060 BKN090
TEMPO 1612/1624 P6SM -SHRA BKN060 OVC090 RMK NXT FCST BY 161800Z
No reported NOTAMs for that airfield.



MET'MAP, your aeronautical weather chart ! - Copyright ORBIFLY December 2007 - Disclaimer

ORBIFLY MET'MAP TEAM :

Programming & Development : Alexandra Zaïnal
Concept & Development : Baudouin d'Aumeries
Co-Development & Prog : Marc-Olivier Méhu
Technical & hardware support : Manuel Goepfert

Contact : metmap@orbifly.com




SOURCES & CREDITS :

   NOAA       Earth
Advisory